createdAt,value
2023-03-10T00:00:04.882Z,990.13
2023-03-10T00:01:04.206Z,990.13
2023-03-10T00:02:05.114Z,990.10
2023-03-10T00:03:04.169Z,990.08
2023-03-10T00:04:04.271Z,990.08
2023-03-10T00:05:04.122Z,990.06
2023-03-10T00:06:04.250Z,990.06
2023-03-10T00:07:04.134Z,990.04
2023-03-10T00:08:04.129Z,990.05
2023-03-10T00:09:04.109Z,990.01
2023-03-10T00:10:04.081Z,989.99
2023-03-10T00:11:04.118Z,990.01
2023-03-10T00:12:04.072Z,990.00
2023-03-10T00:13:04.077Z,989.99
2023-03-10T00:14:04.056Z,989.94
2023-03-10T00:15:04.089Z,989.91
2023-03-10T00:16:04.111Z,989.91
2023-03-10T00:17:04.030Z,989.88
2023-03-10T00:18:04.018Z,989.85
2023-03-10T00:19:03.980Z,989.89
2023-03-10T00:20:03.978Z,989.82
2023-03-10T00:21:03.969Z,989.84
2023-03-10T00:22:03.951Z,989.79
2023-03-10T00:23:03.955Z,989.81
2023-03-10T00:24:03.926Z,989.78
2023-03-10T00:25:03.991Z,989.77
2023-03-10T00:26:03.922Z,989.70
2023-03-10T00:27:03.887Z,989.68
2023-03-10T00:28:03.893Z,989.69
2023-03-10T00:29:03.940Z,989.69
2023-03-10T00:30:03.876Z,989.64
2023-03-10T00:31:03.872Z,989.64
2023-03-10T00:32:03.871Z,989.60
2023-03-10T00:33:03.825Z,989.58
2023-03-10T00:34:03.834Z,989.55
2023-03-10T00:35:03.834Z,989.48
2023-03-10T00:36:03.832Z,989.45
2023-03-10T00:37:03.785Z,989.42
2023-03-10T00:38:03.813Z,989.40
2023-03-10T00:39:03.778Z,989.37
2023-03-10T00:40:03.761Z,989.37
2023-03-10T00:41:03.750Z,989.35
2023-03-10T00:42:03.749Z,989.33
2023-03-10T00:43:04.384Z,989.33
2023-03-10T00:44:03.765Z,989.30
2023-03-10T00:45:03.693Z,989.26
2023-03-10T00:46:03.795Z,989.25
2023-03-10T00:47:03.759Z,989.22
2023-03-10T00:48:03.740Z,989.22
2023-03-10T00:49:03.655Z,989.17
2023-03-10T00:50:03.646Z,989.14
2023-03-10T00:51:03.646Z,989.13
2023-03-10T00:52:03.612Z,989.08
2023-03-10T00:53:03.640Z,989.10
2023-03-10T00:54:03.616Z,989.05
2023-03-10T00:55:03.728Z,989.05
2023-03-10T00:56:03.594Z,989.00
2023-03-10T00:57:03.624Z,988.98
2023-03-10T00:58:03.602Z,988.95
2023-03-10T00:59:03.532Z,988.94
2023-03-10T01:00:03.545Z,988.90
2023-03-10T01:01:03.552Z,988.91
2023-03-10T01:02:03.643Z,988.87
2023-03-10T01:03:03.526Z,988.87
2023-03-10T01:04:03.558Z,988.85
2023-03-10T01:05:03.480Z,988.84
2023-03-10T01:06:03.476Z,988.81
2023-03-10T01:07:03.473Z,988.80
2023-03-10T01:08:03.503Z,988.78
2023-03-10T01:09:03.468Z,988.72
2023-03-10T01:10:03.434Z,988.72
2023-03-10T01:11:03.414Z,988.75
2023-03-10T01:12:03.424Z,988.67
2023-03-10T01:13:03.403Z,988.65
2023-03-10T01:14:03.411Z,988.61
2023-03-10T01:15:03.424Z,988.58
2023-03-10T01:16:03.420Z,988.56
2023-03-10T01:17:03.366Z,988.55
2023-03-10T01:18:03.341Z,988.47
2023-03-10T01:19:03.323Z,988.46
2023-03-10T01:20:03.318Z,988.38
2023-03-10T01:21:03.333Z,988.41
2023-03-10T01:22:03.297Z,988.37
2023-03-10T01:23:03.337Z,988.34
2023-03-10T01:24:03.258Z,988.38
2023-03-10T01:25:03.275Z,988.36
2023-03-10T01:26:03.272Z,988.32
2023-03-10T01:27:03.247Z,988.34
2023-03-10T01:28:03.245Z,988.28
2023-03-10T01:29:03.231Z,988.27
2023-03-10T01:30:03.241Z,988.20
2023-03-10T01:31:03.239Z,988.20
2023-03-10T01:32:03.202Z,988.14
2023-03-10T01:33:03.192Z,988.09
2023-03-10T01:34:03.160Z,988.10
2023-03-10T01:35:03.188Z,988.09
2023-03-10T01:36:03.225Z,988.06
2023-03-10T01:37:03.146Z,988.03
2023-03-10T01:38:03.107Z,988.03
2023-03-10T01:39:03.111Z,988.00
2023-03-10T01:40:03.085Z,988.01
2023-03-10T01:41:03.136Z,988.04
2023-03-10T01:42:03.123Z,988.04
2023-03-10T01:43:03.064Z,988.01
2023-03-10T01:44:03.032Z,987.94
2023-03-10T01:45:03.032Z,987.88
2023-03-10T01:46:03.027Z,987.87
2023-03-10T01:47:03.062Z,987.85
2023-03-10T01:48:03.009Z,987.76
2023-03-10T01:49:03.010Z,987.73
2023-03-10T01:50:02.967Z,987.70
2023-03-10T01:51:02.976Z,987.65
2023-03-10T01:52:02.988Z,987.62
2023-03-10T01:53:02.947Z,987.59
2023-03-10T01:54:02.932Z,987.56
2023-03-10T01:55:02.924Z,987.52
2023-03-10T01:56:02.920Z,987.50
2023-03-10T01:57:02.946Z,987.46
2023-03-10T01:58:02.907Z,987.44
2023-03-10T01:59:02.925Z,987.41
2023-03-10T02:00:02.932Z,987.38
2023-03-10T02:01:02.948Z,987.30
2023-03-10T02:02:02.910Z,987.26
2023-03-10T02:03:02.855Z,987.26
2023-03-10T02:04:03.051Z,987.30
2023-03-10T02:05:02.828Z,987.31
2023-03-10T02:06:02.830Z,987.27
2023-03-10T02:07:02.822Z,987.22
2023-03-10T02:08:02.824Z,987.20
2023-03-10T02:09:02.791Z,987.22
2023-03-10T02:10:02.798Z,987.09
2023-03-10T02:11:02.748Z,987.12
2023-03-10T02:12:02.813Z,987.15
2023-03-10T02:13:02.787Z,987.13
2023-03-10T02:14:02.725Z,987.08
2023-03-10T02:15:02.728Z,987.03
2023-03-10T02:16:02.751Z,987.00
2023-03-10T02:17:02.718Z,986.96
2023-03-10T02:18:02.790Z,986.95
2023-03-10T02:19:02.712Z,986.95
2023-03-10T02:20:02.672Z,987.00
2023-03-10T02:21:02.644Z,986.99
2023-03-10T02:22:02.652Z,986.98
2023-03-10T02:23:02.623Z,986.93
2023-03-10T02:24:02.631Z,986.88
2023-03-10T02:25:02.600Z,986.83
2023-03-10T02:26:02.631Z,986.77
2023-03-10T02:27:02.584Z,986.73
2023-03-10T02:28:02.595Z,986.66
2023-03-10T02:29:02.616Z,986.68
2023-03-10T02:30:02.576Z,986.68
2023-03-10T02:31:02.568Z,986.72
2023-03-10T02:32:02.597Z,986.72
2023-03-10T02:33:02.549Z,986.70
2023-03-10T02:34:02.502Z,986.65
2023-03-10T02:35:02.507Z,986.61
2023-03-10T02:36:02.560Z,986.59
2023-03-10T02:37:02.517Z,986.56
2023-03-10T02:38:02.462Z,986.56
2023-03-10T02:39:02.471Z,986.56
2023-03-10T02:40:02.452Z,986.54
2023-03-10T02:41:02.507Z,986.51
2023-03-10T02:42:02.421Z,986.45
2023-03-10T02:43:02.446Z,986.44
2023-03-10T02:44:02.420Z,986.44
2023-03-10T02:45:02.393Z,986.40
2023-03-10T02:46:02.424Z,986.32
2023-03-10T02:47:02.360Z,986.26
2023-03-10T02:48:02.379Z,986.26
2023-03-10T02:49:02.365Z,986.22
2023-03-10T02:50:02.350Z,986.22
2023-03-10T02:51:02.350Z,986.20
2023-03-10T02:52:02.324Z,986.25
2023-03-10T02:53:02.558Z,986.18
2023-03-10T02:54:02.303Z,986.15
2023-03-10T02:55:02.305Z,986.09
2023-03-10T02:56:02.272Z,986.07
2023-03-10T02:57:02.262Z,986.07
2023-03-10T02:58:02.278Z,986.09
2023-03-10T02:59:02.283Z,986.08
2023-03-10T03:00:02.229Z,986.09
2023-03-10T03:01:02.265Z,986.06
2023-03-10T03:02:02.246Z,986.05
2023-03-10T03:03:02.210Z,986.04
2023-03-10T03:04:02.263Z,985.98
2023-03-10T03:05:02.674Z,985.98
2023-03-10T03:06:02.179Z,985.99
2023-03-10T03:07:02.161Z,986.03
2023-03-10T03:08:02.196Z,985.99
2023-03-10T03:09:02.141Z,985.98
2023-03-10T03:10:02.185Z,985.95
2023-03-10T03:11:02.178Z,985.90
2023-03-10T03:12:02.142Z,985.90
2023-03-10T03:13:02.142Z,985.87
2023-03-10T03:14:02.170Z,985.83
2023-03-10T03:15:02.077Z,985.76
2023-03-10T03:16:02.090Z,985.77
2023-03-10T03:17:02.147Z,985.74
2023-03-10T03:18:02.783Z,985.71
2023-03-10T03:19:02.008Z,985.70
2023-03-10T03:20:02.012Z,985.67
2023-03-10T03:21:02.027Z,985.70
2023-03-10T03:22:02.003Z,985.71
2023-03-10T03:23:01.956Z,985.72
2023-03-10T03:24:01.961Z,985.73
2023-03-10T03:25:01.972Z,985.67
2023-03-10T03:26:01.958Z,985.65
2023-03-10T03:27:01.929Z,985.67
2023-03-10T03:28:01.911Z,985.63
2023-03-10T03:29:01.916Z,985.57
2023-03-10T03:30:01.904Z,985.54
2023-03-10T03:31:01.905Z,985.56
2023-03-10T03:32:02.026Z,985.59
2023-03-10T03:33:02.519Z,985.61
2023-03-10T03:34:01.853Z,985.59
2023-03-10T03:35:01.864Z,985.51
2023-03-10T03:36:01.952Z,985.55
2023-03-10T03:37:01.827Z,985.50
2023-03-10T03:38:01.791Z,985.41
2023-03-10T03:39:01.851Z,985.40
2023-03-10T03:40:01.819Z,985.37
2023-03-10T03:41:01.806Z,985.33
2023-03-10T03:42:01.773Z,985.33
2023-03-10T03:43:01.775Z,985.31
2023-03-10T03:44:01.760Z,985.31
2023-03-10T03:45:01.733Z,985.27
2023-03-10T03:46:01.773Z,985.26
2023-03-10T03:47:01.721Z,985.23
2023-03-10T03:48:01.704Z,985.25
2023-03-10T03:49:01.706Z,985.16
2023-03-10T03:50:01.661Z,985.16
2023-03-10T03:51:01.676Z,985.06
2023-03-10T03:52:01.648Z,985.02
2023-03-10T03:53:01.643Z,984.95
2023-03-10T03:54:01.732Z,984.92
2023-03-10T03:55:01.643Z,984.89
2023-03-10T03:56:01.603Z,984.92
2023-03-10T03:57:01.603Z,984.87
2023-03-10T03:58:01.581Z,984.85
2023-03-10T03:59:01.573Z,984.85
2023-03-10T04:00:02.528Z,984.82
2023-03-10T04:01:01.539Z,984.78
2023-03-10T04:02:01.608Z,984.82
2023-03-10T04:03:01.542Z,984.76
2023-03-10T04:04:01.603Z,984.75
2023-03-10T04:05:01.499Z,984.76
2023-03-10T04:06:01.509Z,984.74
2023-03-10T04:07:01.481Z,984.75
2023-03-10T04:08:01.499Z,984.68
2023-03-10T04:09:01.590Z,984.66
2023-03-10T04:10:01.455Z,984.63
2023-03-10T04:11:01.518Z,984.60
2023-03-10T04:12:01.428Z,984.56
2023-03-10T04:13:01.525Z,984.52
2023-03-10T04:14:01.432Z,984.47
2023-03-10T04:15:01.420Z,984.54
2023-03-10T04:16:01.420Z,984.51
2023-03-10T04:17:01.415Z,984.47
2023-03-10T04:18:01.385Z,984.47
2023-03-10T04:19:01.351Z,984.43
2023-03-10T04:20:08.638Z,984.43
2023-03-10T04:21:02.341Z,984.41
2023-03-10T04:22:01.318Z,984.41
2023-03-10T04:23:01.307Z,984.36
2023-03-10T04:24:01.341Z,984.36
2023-03-10T04:25:01.281Z,984.39
2023-03-10T04:26:01.291Z,984.32
2023-03-10T04:27:01.283Z,984.29
2023-03-10T04:28:01.271Z,984.32
2023-03-10T04:29:01.268Z,984.33
2023-03-10T04:30:01.228Z,984.33
2023-03-10T04:31:01.247Z,984.31
2023-03-10T04:32:05.580Z,984.31
2023-03-10T04:33:01.260Z,984.27
2023-03-10T04:34:01.200Z,984.28
2023-03-10T04:35:01.205Z,984.32
2023-03-10T04:36:01.218Z,984.33
2023-03-10T04:37:01.173Z,984.37
2023-03-10T04:38:01.147Z,984.30
2023-03-10T04:39:01.139Z,984.29
2023-03-10T04:40:01.143Z,984.26
2023-03-10T04:41:01.122Z,984.31
2023-03-10T04:42:01.114Z,984.38
2023-03-10T04:43:01.106Z,984.40
2023-03-10T04:44:01.098Z,984.39
2023-03-10T04:45:01.064Z,984.33
2023-03-10T04:46:01.137Z,984.30
2023-03-10T04:47:01.037Z,984.24
2023-03-10T04:48:01.038Z,984.21
2023-03-10T04:49:01.028Z,984.22
2023-03-10T04:50:01.062Z,984.21
2023-03-10T04:51:01.018Z,984.26
2023-03-10T04:52:01.002Z,984.33
2023-03-10T04:53:00.996Z,984.30
2023-03-10T04:54:00.973Z,984.23
2023-03-10T04:55:00.959Z,984.17
2023-03-10T04:56:00.983Z,984.19
2023-03-10T04:57:00.956Z,984.17
2023-03-10T04:58:01.039Z,984.18
2023-03-10T04:59:00.919Z,984.19
2023-03-10T05:00:02.904Z,984.18
2023-03-10T05:01:03.576Z,984.15
2023-03-10T05:02:00.956Z,984.17
2023-03-10T05:03:00.878Z,984.09
2023-03-10T05:04:00.931Z,984.02
2023-03-10T05:05:00.860Z,984.00
2023-03-10T05:06:00.856Z,983.97
2023-03-10T05:07:00.837Z,984.01
2023-03-10T05:08:00.816Z,983.98
2023-03-10T05:09:00.875Z,984.00
2023-03-10T05:10:00.792Z,984.00
2023-03-10T05:11:00.878Z,983.92
2023-03-10T05:12:00.790Z,983.89
2023-03-10T05:13:00.771Z,983.89
2023-03-10T05:14:00.776Z,983.85
2023-03-10T05:15:00.813Z,983.81
2023-03-10T05:16:00.761Z,983.76
2023-03-10T05:17:00.859Z,983.74
2023-03-10T05:18:00.734Z,983.67
2023-03-10T05:19:00.690Z,983.69
2023-03-10T05:20:00.708Z,983.68
2023-03-10T05:21:00.663Z,983.65
2023-03-10T05:22:00.681Z,983.61
2023-03-10T05:23:00.653Z,983.60
2023-03-10T05:24:00.662Z,983.53
2023-03-10T05:25:00.619Z,983.51
2023-03-10T05:26:00.610Z,983.54
2023-03-10T05:27:00.692Z,983.53
2023-03-10T05:28:00.596Z,983.51
2023-03-10T05:29:00.581Z,983.51
2023-03-10T05:30:00.578Z,983.50
2023-03-10T05:31:00.606Z,983.52
2023-03-10T05:32:00.690Z,983.56
2023-03-10T05:33:00.535Z,983.58
2023-03-10T05:34:00.662Z,983.56
2023-03-10T05:35:00.520Z,983.56
2023-03-10T05:36:01.286Z,983.52
2023-03-10T05:37:00.498Z,983.48
2023-03-10T05:38:00.603Z,983.50
2023-03-10T05:39:00.500Z,983.47
2023-03-10T05:40:00.467Z,983.47
2023-03-10T05:41:00.460Z,983.48
2023-03-10T05:42:00.467Z,983.48
2023-03-10T05:43:00.427Z,983.47
2023-03-10T05:44:00.445Z,983.48
2023-03-10T05:45:00.406Z,983.51
2023-03-10T05:46:00.423Z,983.44
2023-03-10T05:47:00.527Z,983.47
2023-03-10T05:48:00.402Z,983.44
2023-03-10T05:49:00.377Z,983.38
2023-03-10T05:50:00.365Z,983.38
2023-03-10T05:51:00.370Z,983.38
2023-03-10T05:52:00.337Z,983.36
2023-03-10T05:53:00.317Z,983.31
2023-03-10T05:54:00.323Z,983.28
2023-03-10T05:55:00.307Z,983.32
2023-03-10T05:56:00.307Z,983.23
2023-03-10T05:57:00.381Z,983.28
2023-03-10T05:58:00.277Z,983.25
2023-03-10T05:59:00.275Z,983.27
2023-03-10T06:00:00.271Z,983.26
2023-03-10T06:01:00.242Z,983.27
2023-03-10T06:02:00.249Z,983.27
2023-03-10T06:03:00.265Z,983.30
2023-03-10T06:04:00.307Z,983.28
2023-03-10T06:05:00.211Z,983.27
2023-03-10T06:06:00.203Z,983.26
2023-03-10T06:07:00.167Z,983.25
2023-03-10T06:08:00.151Z,983.18
2023-03-10T06:09:00.153Z,983.15
2023-03-10T06:10:00.160Z,983.13
2023-03-10T06:11:00.143Z,983.18
2023-03-10T06:12:00.136Z,983.17
2023-03-10T06:13:00.110Z,983.18
2023-03-10T06:14:00.116Z,983.19
2023-03-10T06:15:00.127Z,983.16
2023-03-10T06:16:00.180Z,983.16
2023-03-10T06:17:00.059Z,983.17
2023-03-10T06:18:00.070Z,983.15
2023-03-10T06:19:00.073Z,983.12
2023-03-10T06:20:00.042Z,983.14
2023-03-10T06:21:00.138Z,983.16
2023-03-10T06:22:00.009Z,983.10
2023-03-10T06:22:59.987Z,983.08
2023-03-10T06:24:00.001Z,983.09
2023-03-10T06:24:59.984Z,983.05
2023-03-10T06:25:59.993Z,983.04
2023-03-10T06:26:59.964Z,983.12
2023-03-10T06:27:59.935Z,983.11
2023-03-10T06:28:59.953Z,983.09
2023-03-10T06:29:59.922Z,983.14
2023-03-10T06:30:59.921Z,983.13
2023-03-10T06:31:59.984Z,983.07
2023-03-10T06:32:59.986Z,983.07
2023-03-10T06:34:00.789Z,983.02
2023-03-10T06:34:59.859Z,982.98
2023-03-10T06:35:59.939Z,982.97
2023-03-10T06:36:59.849Z,983.01
2023-03-10T06:37:59.841Z,983.04
2023-03-10T06:38:59.821Z,983.03
2023-03-10T06:39:59.803Z,983.01
2023-03-10T06:40:59.815Z,983.02
2023-03-10T06:41:59.780Z,983.01
2023-03-10T06:42:59.802Z,983.00
2023-03-10T06:43:59.759Z,983.00
2023-03-10T06:44:59.774Z,983.07
2023-03-10T06:45:59.784Z,983.01
2023-03-10T06:46:59.791Z,983.00
2023-03-10T06:47:59.741Z,983.03
2023-03-10T06:48:59.725Z,983.06
2023-03-10T06:49:59.699Z,983.05
2023-03-10T06:50:59.702Z,983.10
2023-03-10T06:51:59.695Z,983.09
2023-03-10T06:52:59.662Z,983.11
2023-03-10T06:53:59.674Z,983.09
2023-03-10T06:54:59.662Z,983.07
2023-03-10T06:55:59.749Z,983.07
2023-03-10T06:56:59.621Z,983.07
2023-03-10T06:57:59.678Z,983.08
2023-03-10T06:58:59.606Z,983.18
2023-03-10T06:59:59.592Z,983.14
2023-03-10T07:00:59.599Z,983.10
2023-03-10T07:01:59.587Z,983.10
2023-03-10T07:02:59.571Z,983.10
2023-03-10T07:03:59.546Z,983.06
2023-03-10T07:04:59.635Z,983.04
2023-03-10T07:05:59.526Z,983.06
2023-03-10T07:06:59.504Z,983.11
2023-03-10T07:07:59.507Z,983.06
2023-03-10T07:08:59.512Z,983.02
2023-03-10T07:09:59.489Z,982.97
2023-03-10T07:10:59.490Z,982.94
2023-03-10T07:11:59.452Z,982.94
2023-03-10T07:12:59.443Z,982.94
2023-03-10T07:13:59.472Z,982.99
2023-03-10T07:14:59.451Z,982.97
2023-03-10T07:15:59.424Z,982.96
2023-03-10T07:16:59.515Z,982.96
2023-03-10T07:17:59.384Z,982.93
2023-03-10T07:18:59.401Z,982.98
2023-03-10T07:19:59.364Z,982.99
2023-03-10T07:20:59.359Z,983.00
2023-03-10T07:21:59.359Z,982.97
2023-03-10T07:22:59.336Z,982.97
2023-03-10T07:23:59.321Z,982.95
2023-03-10T07:24:59.330Z,982.97
2023-03-10T07:25:59.321Z,983.00
2023-03-10T07:26:59.330Z,983.03
2023-03-10T07:27:59.292Z,983.02
2023-03-10T07:28:59.543Z,983.02
2023-03-10T07:29:59.275Z,982.98
2023-03-10T07:30:59.359Z,982.99
2023-03-10T07:31:59.258Z,982.96
2023-03-10T07:32:59.232Z,982.94
2023-03-10T07:33:59.223Z,982.99
2023-03-10T07:34:59.234Z,982.98
2023-03-10T07:35:59.270Z,983.00
2023-03-10T07:36:59.188Z,982.96
2023-03-10T07:37:59.177Z,982.98
2023-03-10T07:38:59.174Z,982.98
2023-03-10T07:39:59.154Z,983.01
2023-03-10T07:41:01.862Z,983.04
2023-03-10T07:41:59.126Z,982.99
2023-03-10T07:42:59.168Z,983.00
2023-03-10T07:43:59.145Z,982.97
2023-03-10T07:44:59.095Z,982.91
2023-03-10T07:45:59.133Z,982.95
2023-03-10T07:46:59.084Z,982.91
2023-03-10T07:47:59.073Z,982.89
2023-03-10T07:48:59.266Z,982.91
2023-03-10T07:49:59.052Z,982.91
2023-03-10T07:50:59.050Z,982.96
2023-03-10T07:51:59.024Z,982.97
2023-03-10T07:52:59.024Z,983.03
2023-03-10T07:53:59.074Z,983.01
2023-03-10T07:54:59.002Z,983.02
2023-03-10T07:55:58.992Z,982.96
2023-03-10T07:56:59.002Z,982.93
2023-03-10T07:57:58.951Z,982.83
2023-03-10T07:58:58.978Z,982.73
2023-03-10T07:59:58.940Z,982.98
2023-03-10T08:00:58.968Z,983.06
2023-03-10T08:01:58.930Z,982.90
2023-03-10T08:02:58.910Z,982.76
2023-03-10T08:03:59.014Z,982.84
2023-03-10T08:04:58.993Z,982.98
2023-03-10T08:05:58.872Z,982.95
2023-03-10T08:06:58.888Z,982.87
2023-03-10T08:07:58.856Z,982.81
2023-03-10T08:08:58.842Z,982.81
2023-03-10T08:09:58.818Z,982.84
2023-03-10T08:10:58.817Z,982.83
2023-03-10T08:11:58.809Z,982.80
2023-03-10T08:12:58.804Z,982.78
2023-03-10T08:13:58.822Z,982.78
2023-03-10T08:14:58.898Z,982.82
2023-03-10T08:15:58.771Z,982.82
2023-03-10T08:16:58.771Z,982.85
2023-03-10T08:17:58.773Z,982.83
2023-03-10T08:18:58.739Z,982.81
2023-03-10T08:19:58.744Z,982.80
2023-03-10T08:20:58.746Z,982.85
2023-03-10T08:21:58.781Z,982.82
2023-03-10T08:22:58.724Z,982.77
2023-03-10T08:23:58.747Z,982.75
2023-03-10T08:24:58.677Z,982.73
2023-03-10T08:25:58.681Z,982.75
2023-03-10T08:26:58.673Z,982.75
2023-03-10T08:27:58.885Z,982.76
2023-03-10T08:28:58.638Z,982.79
2023-03-10T08:29:58.596Z,982.79
2023-03-10T08:31:04.653Z,982.81
2023-03-10T08:31:59.648Z,982.82
2023-03-10T08:32:58.731Z,982.81
2023-03-10T08:33:58.565Z,982.81
2023-03-10T08:34:58.605Z,982.79
2023-03-10T08:35:58.608Z,982.77
2023-03-10T08:36:58.560Z,982.75
2023-03-10T08:37:58.794Z,982.73
2023-03-10T08:38:58.697Z,982.74
2023-03-10T08:39:58.737Z,982.77
2023-03-10T08:40:59.214Z,982.82
2023-03-10T08:41:58.511Z,982.74
2023-03-10T08:42:58.577Z,982.80
2023-03-10T08:43:58.471Z,982.77
2023-03-10T08:44:59.234Z,982.77
2023-03-10T08:45:58.445Z,982.80
2023-03-10T08:46:58.503Z,982.77
2023-03-10T08:47:58.567Z,982.74
2023-03-10T08:48:58.399Z,982.77
2023-03-10T08:49:58.414Z,982.76
2023-03-10T08:50:58.384Z,982.78
2023-03-10T08:51:59.485Z,982.73
2023-03-10T08:52:58.359Z,982.72
2023-03-10T08:53:58.339Z,982.74
2023-03-10T08:54:59.895Z,982.71
2023-03-10T08:55:58.352Z,982.72
2023-03-10T08:56:58.386Z,982.75
2023-03-10T08:57:58.314Z,982.74
2023-03-10T08:58:58.394Z,982.79
2023-03-10T08:59:58.289Z,982.83
2023-03-10T09:00:58.266Z,982.81
2023-03-10T09:01:58.419Z,982.81
2023-03-10T09:02:58.351Z,982.85
2023-03-10T09:03:58.982Z,982.82
2023-03-10T09:04:58.238Z,982.85
2023-03-10T09:05:58.221Z,982.84
2023-03-10T09:06:58.216Z,982.83
2023-03-10T09:07:59.794Z,982.86
2023-03-10T09:08:58.199Z,982.84
2023-03-10T09:09:58.274Z,982.80
2023-03-10T09:10:58.185Z,982.83
2023-03-10T09:11:58.180Z,982.89
2023-03-10T09:13:12.758Z,982.88
2023-03-10T09:13:59.350Z,982.89
2023-03-10T09:14:58.295Z,982.80
2023-03-10T09:15:58.168Z,982.81
2023-03-10T09:16:58.228Z,982.82
2023-03-10T09:17:58.109Z,982.86
2023-03-10T09:18:58.088Z,982.84
2023-03-10T09:19:58.065Z,982.85
2023-03-10T09:20:58.087Z,982.80
2023-03-10T09:21:58.064Z,982.81
2023-03-10T09:22:58.058Z,982.85
2023-03-10T09:23:58.053Z,982.88
2023-03-10T09:25:00.588Z,982.87
2023-03-10T09:25:57.992Z,982.90
2023-03-10T09:26:57.995Z,982.94
2023-03-10T09:27:57.976Z,982.98
2023-03-10T09:28:58.079Z,983.04
2023-03-10T09:29:59.656Z,983.04
2023-03-10T09:30:57.957Z,983.06
2023-03-10T09:31:57.968Z,983.05
2023-03-10T09:32:57.982Z,983.00
2023-03-10T09:33:57.933Z,982.96
2023-03-10T09:34:57.999Z,983.02
2023-03-10T09:36:06.439Z,983.06
2023-03-10T09:36:58.886Z,983.09
2023-03-10T09:37:57.953Z,983.08
2023-03-10T09:38:57.871Z,983.11
2023-03-10T09:39:57.918Z,983.13
2023-03-10T09:40:57.856Z,983.13
2023-03-10T09:41:57.837Z,983.11
2023-03-10T09:42:57.825Z,983.13
2023-03-10T09:43:57.828Z,983.13
2023-03-10T09:44:57.842Z,983.17
2023-03-10T09:45:57.832Z,983.17
2023-03-10T09:46:57.790Z,983.16
2023-03-10T09:47:57.765Z,983.11
2023-03-10T09:48:57.753Z,983.09
2023-03-10T09:49:57.747Z,983.08
2023-03-10T09:50:57.758Z,983.09
2023-03-10T09:51:58.250Z,983.17
2023-03-10T09:52:57.783Z,983.15
2023-03-10T09:53:57.705Z,983.14
2023-03-10T09:54:57.696Z,983.15
2023-03-10T09:55:57.675Z,983.17
2023-03-10T09:56:57.676Z,983.08
2023-03-10T09:57:57.741Z,983.09
2023-03-10T09:58:57.662Z,983.14
2023-03-10T09:59:57.647Z,983.18
2023-03-10T10:00:57.643Z,983.16
2023-03-10T10:01:57.611Z,983.18
2023-03-10T10:02:57.749Z,983.19
2023-03-10T10:03:57.638Z,983.13
2023-03-10T10:04:57.639Z,983.18
2023-03-10T10:05:57.727Z,983.17
2023-03-10T10:06:57.562Z,983.17
2023-03-10T10:07:57.559Z,983.11
2023-03-10T10:09:04.230Z,983.14
2023-03-10T10:09:58.528Z,983.15
2023-03-10T10:10:57.515Z,983.13
2023-03-10T10:11:57.534Z,983.14
2023-03-10T10:12:57.494Z,983.09
2023-03-10T10:13:57.477Z,983.08
2023-03-10T10:14:57.890Z,983.06
2023-03-10T10:16:18.217Z,983.08
2023-03-10T10:16:58.489Z,983.09
2023-03-10T10:18:08.256Z,983.08
2023-03-10T10:18:58.459Z,983.09
2023-03-10T10:19:57.397Z,983.08
2023-03-10T10:20:57.410Z,983.02
2023-03-10T10:21:57.377Z,983.09
2023-03-10T10:22:57.378Z,983.04
2023-03-10T10:23:57.377Z,983.10
2023-03-10T10:24:57.354Z,983.09
2023-03-10T10:25:57.358Z,983.03
2023-03-10T10:26:57.487Z,983.10
2023-03-10T10:27:57.350Z,983.08
2023-03-10T10:28:57.352Z,983.11
2023-03-10T10:29:57.338Z,983.09
2023-03-10T10:30:57.345Z,983.13
2023-03-10T10:31:57.277Z,983.11
2023-03-10T10:32:57.302Z,983.13
2023-03-10T10:33:57.284Z,983.09
2023-03-10T10:34:57.266Z,983.09
2023-03-10T10:35:57.272Z,983.12
2023-03-10T10:36:57.289Z,983.09
2023-03-10T10:37:57.231Z,983.10
2023-03-10T10:38:57.228Z,983.16
2023-03-10T10:39:57.217Z,983.20
2023-03-10T10:40:57.221Z,983.19
2023-03-10T10:41:57.187Z,983.21
2023-03-10T10:42:57.170Z,983.22
2023-03-10T10:43:57.189Z,983.26
2023-03-10T10:44:57.532Z,983.26
2023-03-10T10:45:57.213Z,983.30
2023-03-10T10:46:57.130Z,983.35
2023-03-10T10:47:57.120Z,983.35
2023-03-10T10:48:57.109Z,983.42
2023-03-10T10:49:57.101Z,983.41
2023-03-10T10:50:57.097Z,983.37
2023-03-10T10:51:57.081Z,983.35
2023-03-10T10:52:57.062Z,983.40
2023-03-10T10:53:57.047Z,983.37
2023-03-10T10:54:57.064Z,983.39
2023-03-10T10:55:57.033Z,983.38
2023-03-10T10:56:57.050Z,983.42
2023-03-10T10:57:58.114Z,983.41
2023-03-10T10:58:56.990Z,983.42
2023-03-10T10:59:56.985Z,983.40
2023-03-10T11:00:57.000Z,983.33
2023-03-10T11:01:56.979Z,983.44
2023-03-10T11:02:57.047Z,983.52
2023-03-10T11:03:56.936Z,983.51
2023-03-10T11:04:56.935Z,983.49
2023-03-10T11:05:56.909Z,983.52
2023-03-10T11:06:56.899Z,983.51
2023-03-10T11:07:56.919Z,983.50
2023-03-10T11:08:56.904Z,983.54
2023-03-10T11:09:56.890Z,983.50
2023-03-10T11:10:56.864Z,983.48
2023-03-10T11:11:56.873Z,983.54
2023-03-10T11:12:56.845Z,983.51
2023-03-10T11:13:56.881Z,983.49
2023-03-10T11:14:57.832Z,983.55
2023-03-10T11:15:56.877Z,983.51
2023-03-10T11:16:56.804Z,983.51
2023-03-10T11:17:56.778Z,983.46
2023-03-10T11:18:56.853Z,983.48
2023-03-10T11:19:56.763Z,983.42
2023-03-10T11:20:56.757Z,983.44
2023-03-10T11:21:56.746Z,983.40
2023-03-10T11:22:57.006Z,983.47
2023-03-10T11:23:56.719Z,983.40
2023-03-10T11:24:56.704Z,983.43
2023-03-10T11:25:56.742Z,983.42
2023-03-10T11:26:56.697Z,983.43
2023-03-10T11:27:56.685Z,983.41
2023-03-10T11:28:56.646Z,983.44
2023-03-10T11:29:56.645Z,983.47
2023-03-10T11:30:56.644Z,983.52
2023-03-10T11:31:56.647Z,983.52
2023-03-10T11:32:56.634Z,983.49
2023-03-10T11:33:56.624Z,983.52
2023-03-10T11:34:56.602Z,983.52
2023-03-10T11:35:58.115Z,983.54
2023-03-10T11:36:57.378Z,983.56
2023-03-10T11:37:56.569Z,983.57
2023-03-10T11:38:56.591Z,983.55
2023-03-10T11:39:56.663Z,983.55
2023-03-10T11:40:56.515Z,983.53
2023-03-10T11:41:56.534Z,983.52
2023-03-10T11:42:56.550Z,983.49
2023-03-10T11:43:56.503Z,983.52
2023-03-10T11:44:56.482Z,983.54
2023-03-10T11:45:56.550Z,983.51
2023-03-10T11:46:56.473Z,983.48
2023-03-10T11:47:56.480Z,983.48
2023-03-10T11:48:56.455Z,983.49
2023-03-10T11:49:56.446Z,983.48
2023-03-10T11:50:56.436Z,983.50
2023-03-10T11:51:56.438Z,983.48
2023-03-10T11:52:56.392Z,983.51
2023-03-10T11:53:56.399Z,983.49
2023-03-10T11:54:56.400Z,983.49
2023-03-10T11:55:56.364Z,983.46
2023-03-10T11:56:56.357Z,983.49
2023-03-10T11:57:56.342Z,983.45
2023-03-10T11:58:56.324Z,983.49
2023-03-10T11:59:56.336Z,983.48
2023-03-10T12:00:56.315Z,983.49
2023-03-10T12:01:56.304Z,983.45
2023-03-10T12:02:56.296Z,983.50
2023-03-10T12:03:56.495Z,983.46
2023-03-10T12:04:56.276Z,983.48
2023-03-10T12:05:56.366Z,983.54
2023-03-10T12:06:56.246Z,983.54
2023-03-10T12:07:56.239Z,983.56
2023-03-10T12:08:56.209Z,983.57
2023-03-10T12:09:56.217Z,983.58
2023-03-10T12:10:56.186Z,983.56
2023-03-10T12:11:56.206Z,983.55
2023-03-10T12:12:56.185Z,983.53
2023-03-10T12:13:56.164Z,983.48
2023-03-10T12:14:56.307Z,983.48
2023-03-10T12:15:56.173Z,983.47
2023-03-10T12:16:56.142Z,983.54
2023-03-10T12:17:56.122Z,983.54
2023-03-10T12:18:56.112Z,983.57
2023-03-10T12:19:56.112Z,983.58
2023-03-10T12:20:56.095Z,983.53
2023-03-10T12:21:56.080Z,983.53
2023-03-10T12:22:56.075Z,983.54
2023-03-10T12:23:56.075Z,983.55
2023-03-10T12:24:56.046Z,983.58
2023-03-10T12:25:56.060Z,983.61
2023-03-10T12:26:56.023Z,983.59
2023-03-10T12:27:56.020Z,983.59